sensor_id;sensor_type;location;lat;lon;timestamp;pressure;altitude;pressure_sealevel;temperature;humidity
70833;BME280;58452;59.418;17.962;2023-05-07T00:01:15;102795.44;;;2.95;58.96
70833;BME280;58452;59.418;17.962;2023-05-07T00:03:41;102823.13;;;3.09;58.73
70833;BME280;58452;59.418;17.962;2023-05-07T00:06:07;102809.72;;;3.03;58.90
70833;BME280;58452;59.418;17.962;2023-05-07T00:08:32;102820.69;;;3.05;59.54
70833;BME280;58452;59.418;17.962;2023-05-07T00:10:57;102815.75;;;3.00;59.28
70833;BME280;58452;59.418;17.962;2023-05-07T00:13:23;102823.41;;;2.99;59.30
70833;BME280;58452;59.418;17.962;2023-05-07T00:15:48;102820.16;;;2.93;59.41
70833;BME280;58452;59.418;17.962;2023-05-07T00:18:14;102818.59;;;2.89;59.80
70833;BME280;58452;59.418;17.962;2023-05-07T00:20:39;102823.69;;;2.89;59.26
70833;BME280;58452;59.418;17.962;2023-05-07T00:23:05;102820.31;;;2.87;59.63
70833;BME280;58452;59.418;17.962;2023-05-07T00:25:30;102823.81;;;2.83;59.64
70833;BME280;58452;59.418;17.962;2023-05-07T00:27:55;102819.56;;;2.84;60.09
70833;BME280;58452;59.418;17.962;2023-05-07T00:30:22;102823.06;;;2.80;59.90
70833;BME280;58452;59.418;17.962;2023-05-07T00:32:49;102820.44;;;2.83;60.27
70833;BME280;58452;59.418;17.962;2023-05-07T00:35:15;102820.59;;;2.78;60.54
70833;BME280;58452;59.418;17.962;2023-05-07T00:37:41;102818.91;;;2.77;60.23
70833;BME280;58452;59.418;17.962;2023-05-07T00:40:07;102812.28;;;2.70;60.08
70833;BME280;58452;59.418;17.962;2023-05-07T00:42:33;102822.50;;;2.70;60.29
70833;BME280;58452;59.418;17.962;2023-05-07T00:44:58;102819.97;;;2.69;60.07
70833;BME280;58452;59.418;17.962;2023-05-07T00:47:25;102819.22;;;2.65;60.01
70833;BME280;58452;59.418;17.962;2023-05-07T00:49:50;102815.97;;;2.60;60.16
70833;BME280;58452;59.418;17.962;2023-05-07T00:52:17;102819.47;;;2.56;60.06
70833;BME280;58452;59.418;17.962;2023-05-07T00:54:45;102813.56;;;2.54;59.68
70833;BME280;58452;59.418;17.962;2023-05-07T00:57:11;102817.88;;;2.52;59.93
70833;BME280;58452;59.418;17.962;2023-05-07T00:59:36;102809.56;;;2.44;60.14
70833;BME280;58452;59.418;17.962;2023-05-07T01:02:02;102809.66;;;2.41;60.04
70833;BME280;58452;59.418;17.962;2023-05-07T01:04:27;102820.63;;;2.43;60.03
70833;BME280;58452;59.418;17.962;2023-05-07T01:06:55;102822.47;;;2.38;60.10
70833;BME280;58452;59.418;17.962;2023-05-07T01:09:22;102831.09;;;2.32;60.25
70833;BME280;58452;59.418;17.962;2023-05-07T01:11:49;102805.09;;;2.20;60.27
70833;BME280;58452;59.418;17.962;2023-05-07T01:14:16;102816.88;;;2.24;60.28
70833;BME280;58452;59.418;17.962;2023-05-07T01:16:42;102819.47;;;2.22;60.62
70833;BME280;58452;59.418;17.962;2023-05-07T01:19:11;102816.09;;;2.20;60.69
70833;BME280;58452;59.418;17.962;2023-05-07T01:21:45;102824.72;;;2.16;60.60
70833;BME280;58452;59.418;17.962;2023-05-07T01:24:11;102810.56;;;2.05;60.45
70833;BME280;58452;59.418;17.962;2023-05-07T01:26:37;102821.44;;;2.10;60.38
70833;BME280;58452;59.418;17.962;2023-05-07T01:29:02;102829.16;;;2.08;60.77
70833;BME280;58452;59.418;17.962;2023-05-07T01:31:28;102824.22;;;2.01;60.84
70833;BME280;58452;59.418;17.962;2023-05-07T01:33:54;102827.56;;;2.03;60.75
70833;BME280;58452;59.418;17.962;2023-05-07T01:36:22;102824.22;;;2.01;60.85
70833;BME280;58452;59.418;17.962;2023-05-07T01:38:51;102824.31;;;1.98;61.22
70833;BME280;58452;59.418;17.962;2023-05-07T01:41:18;102826.91;;;1.94;61.22
70833;BME280;58452;59.418;17.962;2023-05-07T01:43:45;102834.53;;;1.94;61.16
70833;BME280;58452;59.418;17.962;2023-05-07T01:46:12;102832.97;;;1.90;61.09
70833;BME280;58452;59.418;17.962;2023-05-07T01:48:38;102835.53;;;1.89;61.52
70833;BME280;58452;59.418;17.962;2023-05-07T01:51:05;102827.06;;;1.88;61.56
70833;BME280;58452;59.418;17.962;2023-05-07T01:53:40;102829.59;;;1.88;61.22
70833;BME280;58452;59.418;17.962;2023-05-07T01:56:09;102830.38;;;1.92;61.80
70833;BME280;58452;59.418;17.962;2023-05-07T01:58:34;102834.63;;;1.91;62.21
70833;BME280;58452;59.418;17.962;2023-05-07T02:01:00;102826.34;;;1.83;61.93
70833;BME280;58452;59.418;17.962;2023-05-07T02:03:25;102823.78;;;1.83;62.52
70833;BME280;58452;59.418;17.962;2023-05-07T02:05:51;102828.00;;;1.84;62.23
70833;BME280;58452;59.418;17.962;2023-05-07T02:08:16;102828.97;;;1.79;62.30
70833;BME280;58452;59.418;17.962;2023-05-07T02:10:41;102833.16;;;1.81;62.18
70833;BME280;58452;59.418;17.962;2023-05-07T02:13:07;102825.75;;;1.72;61.80
70833;BME280;58452;59.418;17.962;2023-05-07T02:15:32;102841.72;;;1.77;61.81
70833;BME280;58452;59.418;17.962;2023-05-07T02:18:02;102836.72;;;1.74;61.68
70833;BME280;58452;59.418;17.962;2023-05-07T02:20:28;102841.81;;;1.73;61.98
70833;BME280;58452;59.418;17.962;2023-05-07T02:22:54;102836.09;;;1.65;61.62
70833;BME280;58452;59.418;17.962;2023-05-07T02:25:19;102841.16;;;1.65;61.69
70833;BME280;58452;59.418;17.962;2023-05-07T02:27:45;102842.97;;;1.60;61.59
70833;BME280;58452;59.418;17.962;2023-05-07T02:30:11;102846.34;;;1.60;61.77
70833;BME280;58452;59.418;17.962;2023-05-07T02:32:36;102848.06;;;1.58;62.22
70833;BME280;58452;59.418;17.962;2023-05-07T02:35:02;102845.53;;;1.58;62.06
70833;BME280;58452;59.418;17.962;2023-05-07T02:37:27;102847.28;;;1.56;62.11
70833;BME280;58452;59.418;17.962;2023-05-07T02:39:52;102847.34;;;1.53;61.83
70833;BME280;58452;59.418;17.962;2023-05-07T02:42:18;102839.81;;;1.48;61.92
70833;BME280;58452;59.418;17.962;2023-05-07T02:44:43;102845.88;;;1.43;62.83
70833;BME280;58452;59.418;17.962;2023-05-07T02:47:09;102845.97;;;1.37;62.05
70833;BME280;58452;59.418;17.962;2023-05-07T02:49:35;102855.25;;;1.39;61.96
70833;BME280;58452;59.418;17.962;2023-05-07T02:52:01;102855.25;;;1.39;62.18
70833;BME280;58452;59.418;17.962;2023-05-07T02:54:26;102851.91;;;1.37;62.14
70833;BME280;58452;59.418;17.962;2023-05-07T02:56:51;102851.94;;;1.36;61.74
70833;BME280;58452;59.418;17.962;2023-05-07T02:59:17;102851.19;;;1.31;62.37
70833;BME280;58452;59.418;17.962;2023-05-07T03:01:42;102862.22;;;1.31;62.36
70833;BME280;58452;59.418;17.962;2023-05-07T03:04:10;102858.00;;;1.29;61.93
70833;BME280;58452;59.418;17.962;2023-05-07T03:06:35;102859.75;;;1.27;61.99
70833;BME280;58452;59.418;17.962;2023-05-07T03:09:01;102854.59;;;1.30;62.03
70833;BME280;58452;59.418;17.962;2023-05-07T03:11:27;102849.66;;;1.24;62.52
70833;BME280;58452;59.418;17.962;2023-05-07T03:13:52;102847.97;;;1.23;62.47
70833;BME280;58452;59.418;17.962;2023-05-07T03:16:18;102849.66;;;1.24;62.40
70833;BME280;58452;59.418;17.962;2023-05-07T03:18:43;102858.91;;;1.26;62.55
70833;BME280;58452;59.418;17.962;2023-05-07T03:21:09;102859.75;;;1.27;62.15
70833;BME280;58452;59.418;17.962;2023-05-07T03:23:34;102861.44;;;1.28;62.72
70833;BME280;58452;59.418;17.962;2023-05-07T03:26:00;102859.75;;;1.27;62.46
70833;BME280;58452;59.418;17.962;2023-05-07T03:28:25;102853.00;;;1.26;62.85
70833;BME280;58452;59.418;17.962;2023-05-07T03:30:51;102867.38;;;1.28;62.66
70833;BME280;58452;59.418;17.962;2023-05-07T03:33:16;102850.44;;;1.26;63.11
70833;BME280;58452;59.418;17.962;2023-05-07T03:35:41;102844.63;;;1.21;63.28
70833;BME280;58452;59.418;17.962;2023-05-07T03:38:07;102864.78;;;1.30;63.03
70833;BME280;58452;59.418;17.962;2023-05-07T03:40:32;102868.16;;;1.32;63.47
70833;BME280;58452;59.418;17.962;2023-05-07T03:42:59;102869.72;;;1.36;63.45
70833;BME280;58452;59.418;17.962;2023-05-07T03:45:25;102860.59;;;1.27;63.42
70833;BME280;58452;59.418;17.962;2023-05-07T03:47:51;102875.66;;;1.38;64.04
70833;BME280;58452;59.418;17.962;2023-05-07T03:50:16;102873.06;;;1.39;64.64
70833;BME280;58452;59.418;17.962;2023-05-07T03:52:42;102877.22;;;1.43;64.20
70833;BME280;58452;59.418;17.962;2023-05-07T03:55:08;102867.88;;;1.44;64.22
70833;BME280;58452;59.418;17.962;2023-05-07T03:57:33;102864.47;;;1.45;64.64
70833;BME280;58452;59.418;17.962;2023-05-07T03:59:59;102875.34;;;1.53;65.22
70833;BME280;58452;59.418;17.962;2023-05-07T04:02:24;102874.34;;;1.60;65.46
70833;BME280;58452;59.418;17.962;2023-05-07T04:04:50;102868.31;;;1.64;65.40
70833;BME280;58452;59.418;17.962;2023-05-07T04:07:15;102870.81;;;1.67;65.06
70833;BME280;58452;59.418;17.962;2023-05-07T04:09:41;102874.03;;;1.75;65.60
70833;BME280;58452;59.418;17.962;2023-05-07T04:12:06;102868.00;;;1.79;65.49
70833;BME280;58452;59.418;17.962;2023-05-07T04:14:32;102873.78;;;1.86;65.77
70833;BME280;58452;59.418;17.962;2023-05-07T04:16:58;102872.72;;;1.94;65.56
70833;BME280;58452;59.418;17.962;2023-05-07T04:19:24;102878.50;;;2.03;65.55
70833;BME280;58452;59.418;17.962;2023-05-07T04:21:50;102873.28;;;2.09;65.81
70833;BME280;58452;59.418;17.962;2023-05-07T04:24:15;102872.28;;;2.14;66.42
70833;BME280;58452;59.418;17.962;2023-05-07T04:26:41;102875.47;;;2.24;65.88
70833;BME280;58452;59.418;17.962;2023-05-07T04:29:06;102876.28;;;2.26;66.38
70833;BME280;58452;59.418;17.962;2023-05-07T04:31:32;102879.41;;;2.37;66.89
70833;BME280;58452;59.418;17.962;2023-05-07T04:33:58;102877.47;;;2.46;66.75
70833;BME280;58452;59.418;17.962;2023-05-07T04:36:23;102881.41;;;2.58;66.65
70833;BME280;58452;59.418;17.962;2023-05-07T04:38:53;102880.31;;;2.68;67.49
70833;BME280;58452;59.418;17.962;2023-05-07T04:41:19;102878.41;;;2.76;67.38
70833;BME280;58452;59.418;17.962;2023-05-07T04:43:44;102885.66;;;2.91;67.27
70833;BME280;58452;59.418;17.962;2023-05-07T04:46:10;102883.69;;;3.03;67.18
70833;BME280;58452;59.418;17.962;2023-05-07T04:48:36;102885.91;;;3.15;67.79
70833;BME280;58452;59.418;17.962;2023-05-07T04:51:01;102891.47;;;3.29;67.69
70833;BME280;58452;59.418;17.962;2023-05-07T04:53:27;102896.28;;;3.39;69.22
70833;BME280;58452;59.418;17.962;2023-05-07T04:55:58;102894.16;;;3.54;69.12
70833;BME280;58452;59.418;17.962;2023-05-07T04:58:23;102894.72;;;3.63;68.96
70833;BME280;58452;59.418;17.962;2023-05-07T05:00:49;102898.59;;;3.78;69.38
70833;BME280;58452;59.418;17.962;2023-05-07T05:03:15;102901.56;;;3.92;69.41
70833;BME280;58452;59.418;17.962;2023-05-07T05:05:40;102893.66;;;4.00;68.55
70833;BME280;58452;59.418;17.962;2023-05-07T05:08:06;102887.28;;;4.13;68.75
70833;BME280;58452;59.418;17.962;2023-05-07T05:10:31;102891.47;;;4.15;68.04
70833;BME280;58452;59.418;17.962;2023-05-07T05:12:57;102893.59;;;4.29;67.53
70833;BME280;58452;59.418;17.962;2023-05-07T05:15:22;102898.31;;;4.41;67.12
70833;BME280;58452;59.418;17.962;2023-05-07T05:17:48;102896.84;;;4.60;66.84
70833;BME280;58452;59.418;17.962;2023-05-07T05:20:13;102898.50;;;4.61;65.63
70833;BME280;58452;59.418;17.962;2023-05-07T05:22:40;102903.31;;;4.70;65.60
70833;BME280;58452;59.418;17.962;2023-05-07T05:25:05;102902.03;;;4.83;65.72
70833;BME280;58452;59.418;17.962;2023-05-07T05:27:31;102907.34;;;5.02;64.83
70833;BME280;58452;59.418;17.962;2023-05-07T05:29:56;102899.34;;;5.11;63.42
70833;BME280;58452;59.418;17.962;2023-05-07T05:32:22;102902.25;;;5.25;63.57
70833;BME280;58452;59.418;17.962;2023-05-07T05:34:47;102906.72;;;4.96;63.40
70833;BME280;58452;59.418;17.962;2023-05-07T05:37:13;102887.44;;;4.85;63.97
70833;BME280;58452;59.418;17.962;2023-05-07T05:39:38;102907.81;;;4.88;65.08
70833;BME280;58452;59.418;17.962;2023-05-07T05:42:04;102906.81;;;4.92;65.24
70833;BME280;58452;59.418;17.962;2023-05-07T05:44:29;102909.38;;;4.92;64.49
70833;BME280;58452;59.418;17.962;2023-05-07T05:46:54;102907.19;;;5.07;64.32
70833;BME280;58452;59.418;17.962;2023-05-07T05:49:22;102904.47;;;5.11;63.19
70833;BME280;58452;59.418;17.962;2023-05-07T05:51:48;102894.94;;;5.15;62.31
70833;BME280;58452;59.418;17.962;2023-05-07T05:54:13;102895.63;;;5.43;61.50
70833;BME280;58452;59.418;17.962;2023-05-07T05:56:39;102900.19;;;5.58;59.55
70833;BME280;58452;59.418;17.962;2023-05-07T05:59:04;102900.63;;;5.69;59.19
70833;BME280;58452;59.418;17.962;2023-05-07T06:01:30;102898.63;;;5.77;59.39
70833;BME280;58452;59.418;17.962;2023-05-07T06:03:56;102906.31;;;6.01;59.17
70833;BME280;58452;59.418;17.962;2023-05-07T06:06:21;102904.47;;;6.04;58.37
70833;BME280;58452;59.418;17.962;2023-05-07T06:08:47;102900.06;;;6.08;58.44
70833;BME280;58452;59.418;17.962;2023-05-07T06:11:12;102897.78;;;6.22;57.64
70833;BME280;58452;59.418;17.962;2023-05-07T06:13:38;102896.78;;;6.46;57.11
70833;BME280;58452;59.418;17.962;2023-05-07T06:16:03;102897.50;;;6.50;56.45
70833;BME280;58452;59.418;17.962;2023-05-07T06:18:29;102907.13;;;6.65;56.75
70833;BME280;58452;59.418;17.962;2023-05-07T06:20:54;102906.06;;;6.70;56.11
70833;BME280;58452;59.418;17.962;2023-05-07T06:23:20;102908.38;;;6.97;55.89
70833;BME280;58452;59.418;17.962;2023-05-07T06:25:49;102910.78;;;7.20;54.09
70833;BME280;58452;59.418;17.962;2023-05-07T06:28:15;102908.03;;;7.43;52.76
70833;BME280;58452;59.418;17.962;2023-05-07T06:30:41;102902.63;;;7.49;52.19
70833;BME280;58452;59.418;17.962;2023-05-07T06:33:06;102910.31;;;7.49;51.76
70833;BME280;58452;59.418;17.962;2023-05-07T06:35:32;102895.50;;;7.17;51.14
70833;BME280;58452;59.418;17.962;2023-05-07T06:37:57;102902.22;;;6.80;52.48
70833;BME280;58452;59.418;17.962;2023-05-07T06:40:23;102905.25;;;7.29;52.47
70833;BME280;58452;59.418;17.962;2023-05-07T06:42:48;102910.69;;;7.60;52.08
70833;BME280;58452;59.418;17.962;2023-05-07T06:45:13;102905.28;;;7.66;51.16
70833;BME280;58452;59.418;17.962;2023-05-07T06:47:39;102884.84;;;7.63;51.42
70833;BME280;58452;59.418;17.962;2023-05-07T06:50:05;102895.25;;;7.98;50.67
70833;BME280;58452;59.418;17.962;2023-05-07T06:52:30;102894.28;;;7.25;50.29
70833;BME280;58452;59.418;17.962;2023-05-07T06:54:56;102903.84;;;7.22;51.31
70833;BME280;58452;59.418;17.962;2023-05-07T06:57:21;102903.13;;;7.57;50.60
70833;BME280;58452;59.418;17.962;2023-05-07T06:59:47;102912.00;;;7.88;50.32
70833;BME280;58452;59.418;17.962;2023-05-07T07:02:12;102905.63;;;7.77;48.38
70833;BME280;58452;59.418;17.962;2023-05-07T07:04:38;102911.06;;;7.14;49.55
70833;BME280;58452;59.418;17.962;2023-05-07T07:07:03;102904.66;;;7.04;51.17
70833;BME280;58452;59.418;17.962;2023-05-07T07:09:28;102901.63;;;7.14;50.74
70833;BME280;58452;59.418;17.962;2023-05-07T07:11:54;102908.63;;;6.91;46.72
70833;BME280;58452;59.418;17.962;2023-05-07T07:14:19;102901.19;;;7.23;47.23
70833;BME280;58452;59.418;17.962;2023-05-07T07:16:45;102900.53;;;7.00;47.82
70833;BME280;58452;59.418;17.962;2023-05-07T07:19:12;102900.41;;;6.82;47.53
70833;BME280;58452;59.418;17.962;2023-05-07T07:21:37;102899.09;;;7.13;47.10
70833;BME280;58452;59.418;17.962;2023-05-07T07:24:03;102909.47;;;7.11;47.90
70833;BME280;58452;59.418;17.962;2023-05-07T07:26:28;102906.94;;;7.10;47.93
70833;BME280;58452;59.418;17.962;2023-05-07T07:28:54;102904.00;;;7.37;46.45
70833;BME280;58452;59.418;17.962;2023-05-07T07:31:19;102891.41;;;7.52;46.20
70833;BME280;58452;59.418;17.962;2023-05-07T07:33:45;102889.91;;;7.83;45.52
70833;BME280;58452;59.418;17.962;2023-05-07T07:36:10;102894.69;;;7.91;44.33
70833;BME280;58452;59.418;17.962;2023-05-07T07:38:36;102894.28;;;7.81;45.78
70833;BME280;58452;59.418;17.962;2023-05-07T07:41:01;102894.81;;;8.07;44.12
70833;BME280;58452;59.418;17.962;2023-05-07T07:43:27;102885.25;;;8.27;43.87
70833;BME280;58452;59.418;17.962;2023-05-07T07:45:53;102885.06;;;8.32;42.79
70833;BME280;58452;59.418;17.962;2023-05-07T07:48:18;102890.50;;;8.43;42.16
70833;BME280;58452;59.418;17.962;2023-05-07T07:50:44;102883.84;;;8.56;43.11
70833;BME280;58452;59.418;17.962;2023-05-07T07:53:09;102881.13;;;8.76;44.66
70833;BME280;58452;59.418;17.962;2023-05-07T07:55:39;102890.56;;;8.93;41.09
70833;BME280;58452;59.418;17.962;2023-05-07T07:58:05;102884.06;;;8.52;41.55
70833;BME280;58452;59.418;17.962;2023-05-07T08:00:30;102882.31;;;8.52;41.78
70833;BME280;58452;59.418;17.962;2023-05-07T08:02:56;102880.72;;;8.67;41.85
70833;BME280;58452;59.418;17.962;2023-05-07T08:05:22;102882.91;;;8.74;41.47
70833;BME280;58452;59.418;17.962;2023-05-07T08:07:48;102886.53;;;9.05;41.68
70833;BME280;58452;59.418;17.962;2023-05-07T08:10:18;102879.97;;;8.82;41.66
70833;BME280;58452;59.418;17.962;2023-05-07T08:12:50;102877.88;;;9.06;42.00
70833;BME280;58452;59.418;17.962;2023-05-07T08:15:16;102876.75;;;9.27;43.30
70833;BME280;58452;59.418;17.962;2023-05-07T08:17:42;102871.06;;;9.53;43.26
70833;BME280;58452;59.418;17.962;2023-05-07T08:20:07;102867.47;;;9.71;43.02
70833;BME280;58452;59.418;17.962;2023-05-07T08:22:36;102858.84;;;9.57;41.93
70833;BME280;58452;59.418;17.962;2023-05-07T08:25:02;102862.13;;;9.43;41.50
70833;BME280;58452;59.418;17.962;2023-05-07T08:27:28;102876.94;;;9.24;41.43
70833;BME280;58452;59.418;17.962;2023-05-07T08:29:53;102883.03;;;9.06;40.13
70833;BME280;58452;59.418;17.962;2023-05-07T08:32:20;102878.91;;;9.19;40.76
70833;BME280;58452;59.418;17.962;2023-05-07T08:34:45;102885.53;;;9.07;39.21
70833;BME280;58452;59.418;17.962;2023-05-07T08:37:11;102880.84;;;9.31;39.07
70833;BME280;58452;59.418;17.962;2023-05-07T08:39:36;102879.25;;;9.13;40.48
70833;BME280;58452;59.418;17.962;2023-05-07T08:42:03;102878.00;;;9.20;40.53
70833;BME280;58452;59.418;17.962;2023-05-07T08:44:33;102876.94;;;9.24;40.17
70833;BME280;58452;59.418;17.962;2023-05-07T08:47:02;102870.28;;;9.51;41.50
70833;BME280;58452;59.418;17.962;2023-05-07T08:49:28;102863.97;;;9.72;41.99
70833;BME280;58452;59.418;17.962;2023-05-07T08:51:54;102858.50;;;9.94;41.50
70833;BME280;58452;59.418;17.962;2023-05-07T08:54:21;102861.06;;;9.94;40.19
70833;BME280;58452;59.418;17.962;2023-05-07T08:56:46;102853.19;;;10.11;40.24
70833;BME280;58452;59.418;17.962;2023-05-07T08:59:12;102862.06;;;10.37;40.93
70833;BME280;58452;59.418;17.962;2023-05-07T09:01:37;102858.09;;;10.46;41.25
70833;BME280;58452;59.418;17.962;2023-05-07T09:04:03;102845.28;;;10.30;39.15
70833;BME280;58452;59.418;17.962;2023-05-07T09:06:29;102848.34;;;10.51;37.62
70833;BME280;58452;59.418;17.962;2023-05-07T09:08:55;102851.56;;;10.40;37.87
70833;BME280;58452;59.418;17.962;2023-05-07T09:11:21;102850.63;;;10.71;38.33
70833;BME280;58452;59.418;17.962;2023-05-07T09:13:48;102847.47;;;10.94;37.19
70833;BME280;58452;59.418;17.962;2023-05-07T09:16:14;102849.97;;;11.10;38.94
70833;BME280;58452;59.418;17.962;2023-05-07T09:18:43;102838.13;;;11.34;39.34
70833;BME280;58452;59.418;17.962;2023-05-07T09:21:15;102837.50;;;10.74;38.04
70833;BME280;58452;59.418;17.962;2023-05-07T09:23:41;102840.16;;;10.58;38.77
70833;BME280;58452;59.418;17.962;2023-05-07T09:26:07;102851.22;;;10.60;38.89
70833;BME280;58452;59.418;17.962;2023-05-07T09:28:40;102843.31;;;10.63;38.06
70833;BME280;58452;59.418;17.962;2023-05-07T09:31:07;102848.94;;;10.98;38.54
70833;BME280;58452;59.418;17.962;2023-05-07T09:33:33;102839.63;;;11.24;39.75
70833;BME280;58452;59.418;17.962;2023-05-07T09:35:58;102845.06;;;11.05;38.28
70833;BME280;58452;59.418;17.962;2023-05-07T09:38:26;102841.31;;;11.11;39.25
70833;BME280;58452;59.418;17.962;2023-05-07T09:41:08;102830.94;;;11.25;36.35
70833;BME280;58452;59.418;17.962;2023-05-07T09:43:35;102839.56;;;11.52;37.31
70833;BME280;58452;59.418;17.962;2023-05-07T09:46:06;102823.28;;;11.64;36.77
70833;BME280;58452;59.418;17.962;2023-05-07T09:48:36;102836.81;;;11.41;39.28
70833;BME280;58452;59.418;17.962;2023-05-07T09:51:02;102843.13;;;10.95;36.02
70833;BME280;58452;59.418;17.962;2023-05-07T09:53:33;102842.75;;;11.29;36.18
70833;BME280;58452;59.418;17.962;2023-05-07T09:55:59;102839.41;;;11.68;36.77
70833;BME280;58452;59.418;17.962;2023-05-07T09:58:25;102832.31;;;11.98;38.96
70833;BME280;58452;59.418;17.962;2023-05-07T10:00:52;102835.69;;;12.25;34.38
70833;BME280;58452;59.418;17.962;2023-05-07T10:03:19;102829.19;;;10.97;35.82
70833;BME280;58452;59.418;17.962;2023-05-07T10:05:46;102835.66;;;11.18;35.79
70833;BME280;58452;59.418;17.962;2023-05-07T10:08:13;102822.00;;;11.57;35.33
70833;BME280;58452;59.418;17.962;2023-05-07T10:10:39;102825.69;;;11.53;34.81
70833;BME280;58452;59.418;17.962;2023-05-07T10:13:05;102824.22;;;11.22;35.84
70833;BME280;58452;59.418;17.962;2023-05-07T10:15:35;102824.22;;;11.49;36.55
70833;BME280;58452;59.418;17.962;2023-05-07T10:18:03;102818.19;;;11.36;37.32
70833;BME280;58452;59.418;17.962;2023-05-07T10:20:29;102823.72;;;11.30;36.21
70833;BME280;58452;59.418;17.962;2023-05-07T10:22:57;102822.59;;;11.48;36.44
70833;BME280;58452;59.418;17.962;2023-05-07T10:25:29;102822.78;;;11.31;36.59
70833;BME280;58452;59.418;17.962;2023-05-07T10:27:57;102823.19;;;11.66;35.75
70833;BME280;58452;59.418;17.962;2023-05-07T10:33:05;102808.22;;;11.71;35.78
70833;BME280;58452;59.418;17.962;2023-05-07T10:35:42;102811.63;;;12.11;34.35
70833;BME280;58452;59.418;17.962;2023-05-07T10:38:09;102806.53;;;12.36;34.41
70833;BME280;58452;59.418;17.962;2023-05-07T10:40:35;102806.53;;;12.36;34.72
70833;BME280;58452;59.418;17.962;2023-05-07T10:43:04;102806.50;;;12.23;35.61
70833;BME280;58452;59.418;17.962;2023-05-07T10:45:32;102801.00;;;12.28;34.49
70833;BME280;58452;59.418;17.962;2023-05-07T10:48:07;102811.69;;;12.61;34.03
70833;BME280;58452;59.418;17.962;2023-05-07T10:50:34;102812.00;;;12.82;35.44
70833;BME280;58452;59.418;17.962;2023-05-07T10:58:44;102799.69;;;13.22;33.33
70833;BME280;58452;59.418;17.962;2023-05-07T11:01:09;102797.69;;;13.38;33.10
70833;BME280;58452;59.418;17.962;2023-05-07T11:12:51;102803.59;;;12.41;33.60
70833;BME280;58452;59.418;17.962;2023-05-07T11:15:35;102792.81;;;12.59;32.89
70833;BME280;58452;59.418;17.962;2023-05-07T11:18:01;102796.06;;;12.50;32.55
70833;BME280;58452;59.418;17.962;2023-05-07T11:26:08;102788.16;;;13.39;35.41
70833;BME280;58452;59.418;17.962;2023-05-07T11:28:42;102776.97;;;13.73;35.95
70833;BME280;58452;59.418;17.962;2023-05-07T11:31:08;102784.66;;;13.75;33.07
70833;BME280;58452;59.418;17.962;2023-05-07T11:33:34;102779.69;;;14.06;33.54
70833;BME280;58452;59.418;17.962;2023-05-07T11:36:02;102780.53;;;13.72;31.10
70833;BME280;58452;59.418;17.962;2023-05-07T11:38:29;102787.69;;;13.45;31.18
70833;BME280;58452;59.418;17.962;2023-05-07T11:40:57;102787.53;;;13.83;31.63
70833;BME280;58452;59.418;17.962;2023-05-07T11:43:24;102780.88;;;14.13;31.69
70833;BME280;58452;59.418;17.962;2023-05-07T11:45:49;102777.53;;;14.46;33.73
70833;BME280;58452;59.418;17.962;2023-05-07T11:48:16;102778.97;;;14.73;32.20
70833;BME280;58452;59.418;17.962;2023-05-07T11:51:03;102773.50;;;14.98;30.69
70833;BME280;58452;59.418;17.962;2023-05-07T11:53:38;102759.75;;;15.18;32.23
70833;BME280;58452;59.418;17.962;2023-05-07T11:56:11;102773.91;;;14.82;30.44
70833;BME280;58452;59.418;17.962;2023-05-07T11:58:37;102773.53;;;14.76;32.56
70833;BME280;58452;59.418;17.962;2023-05-07T12:01:03;102755.63;;;15.15;31.29
70833;BME280;58452;59.418;17.962;2023-05-07T12:03:28;102766.53;;;14.87;29.48
70833;BME280;58452;59.418;17.962;2023-05-07T12:05:54;102770.69;;;14.67;30.67
70833;BME280;58452;59.418;17.962;2023-05-07T12:08:21;102770.69;;;14.67;32.87
70833;BME280;58452;59.418;17.962;2023-05-07T12:10:49;102761.84;;;14.59;28.25
70833;BME280;58452;59.418;17.962;2023-05-07T12:13:23;102771.16;;;14.61;28.86
70833;BME280;58452;59.418;17.962;2023-05-07T12:15:52;102762.13;;;14.32;29.73
70833;BME280;58452;59.418;17.962;2023-05-07T12:18:18;102763.38;;;14.73;31.07
70833;BME280;58452;59.418;17.962;2023-05-07T12:20:45;102760.59;;;15.19;29.10
70833;BME280;58452;59.418;17.962;2023-05-07T12:23:11;102761.44;;;14.30;28.21
70833;BME280;58452;59.418;17.962;2023-05-07T12:25:38;102764.97;;;14.29;29.64
70833;BME280;58452;59.418;17.962;2023-05-07T12:28:04;102755.50;;;14.17;31.40
70833;BME280;58452;59.418;17.962;2023-05-07T12:30:38;102752.97;;;14.50;27.84
70833;BME280;58452;59.418;17.962;2023-05-07T12:33:04;102756.50;;;14.49;27.92
70833;BME280;58452;59.418;17.962;2023-05-07T12:35:30;102750.34;;;14.84;27.77
70833;BME280;58452;59.418;17.962;2023-05-07T12:37:57;102751.50;;;15.02;26.31
70833;BME280;58452;59.418;17.962;2023-05-07T12:40:46;102753.81;;;14.73;25.91
70833;BME280;58452;59.418;17.962;2023-05-07T12:45:44;102749.66;;;14.37;25.65
70833;BME280;58452;59.418;17.962;2023-05-07T12:48:10;102748.00;;;14.70;25.98
70833;BME280;58452;59.418;17.962;2023-05-07T12:50:36;102744.41;;;15.15;26.72
70833;BME280;58452;59.418;17.962;2023-05-07T12:53:05;102750.78;;;15.22;25.90
70833;BME280;58452;59.418;17.962;2023-05-07T12:55:31;102749.41;;;14.96;27.31
70833;BME280;58452;59.418;17.962;2023-05-07T12:58:00;102738.00;;;15.08;26.24
70833;BME280;58452;59.418;17.962;2023-05-07T13:00:36;102738.19;;;14.73;25.70
70833;BME280;58452;59.418;17.962;2023-05-07T13:03:02;102746.34;;;14.46;26.15
70833;BME280;58452;59.418;17.962;2023-05-07T13:05:27;102730.31;;;14.52;27.60
70833;BME280;58452;59.418;17.962;2023-05-07T13:07:56;102743.03;;;14.89;26.19
70833;BME280;58452;59.418;17.962;2023-05-07T13:10:22;102742.00;;;15.87;29.23